Portada
METAR-TAF:

METAR-TAF

Aeroports :

Tri-Township Airport

Savanna, Illinois, Estats Units d'Amèrica

latitud: 42-02-45N, longitud: 090-06-28W, altitud: 188 m

Observació

L'informe es va fer fa 17 minuts, a les 18:35 UTC
Vent 12 kt del Est/Sud-Est
Temperatura 19°C
Humitat 94%
Pressió 1012 hPa
Visibilitat: 11.3 km
Cel cobert a una alçada de 9500 ft

METAR: KSFY 191835Z AUTO 12012KT 7SM TSMM OVC095 19/18 A2988 RMK AO2 LTG DSNT SE S AND NW P0001

Hora: 13:52 (18:52 UTC)


TAF: manca

Observacions i pronòstics meteorològics de més de 4000 aeroports (METAR i TAF).

Les estacions disponibles són els punts grocs i vermells al mapa.

Posi el ratolí al punt desitjat per veure el nom de l'estació.

Feu clic per veure les observacions i els pronòstics meteorològics.

Per canviar el mapa: feu clic els botons verds amb una creu de color negre per apropar; al botó verd amb un guió per allunyar la imatge; o en les fletxes verdes per a mapes adjacents.


METAR-TAF: